TKJ3QP LTAC-LTCV
Flight info
| Callsign | TKJ3QP |
|---|---|
| Flight time | 1h 20m |
| Altitude | 37000 |
| Route | GOBIT UL614 MARTI UG8 SORAR G8 SRT T306 ABDIK |
| Aircraft | A320/M-SDE3FGHIRWY/LB1 |
Departure
| Time | 2026-04-28 13:12 |
|---|---|
| Airport | Esenboğa International Airport (LTAC) |
Arrival
| Time | 2026-04-28 14:32 |
|---|---|
| Airport | Şırnak Şerafettin Elçi Airport (LTCV) |
| Time | Latitude | Longitude | Altitude | Speed | Heading |
|---|---|---|---|---|---|
| 2026-04-28 12:52 | 40.11602 | 32.99122 | 3113 ft | 0 kts | 146° |
| 2026-04-28 12:58 | 40.11616 | 32.99110 | 3113 ft | 4 kts | 143° |
| 2026-04-28 12:58 | 40.11632 | 32.99095 | 3113 ft | 4 kts | 130° |
| 2026-04-28 12:58 | 40.11648 | 32.99076 | 3113 ft | 4 kts | 128° |
| 2026-04-28 12:59 | 40.11647 | 32.99059 | 3113 ft | 3 kts | 54° |
| 2026-04-28 12:59 | 40.11639 | 32.99034 | 3113 ft | 2 kts | 55° |
| 2026-04-28 12:59 | 40.11638 | 32.99033 | 3113 ft | 0 kts | 54° |
| 2026-04-28 13:01 | 40.11643 | 32.99041 | 3113 ft | 2 kts | 54° |
| 2026-04-28 13:01 | 40.11658 | 32.99069 | 3113 ft | 7 kts | 54° |
| 2026-04-28 13:01 | 40.11710 | 32.99126 | 3113 ft | 11 kts | 8° |
| 2026-04-28 13:01 | 40.11772 | 32.99093 | 3113 ft | 7 kts | 322° |
| 2026-04-28 13:02 | 40.11791 | 32.99064 | 3113 ft | 4 kts | 308° |
| 2026-04-28 13:02 | 40.11833 | 32.99036 | 3114 ft | 8 kts | 8° |
| 2026-04-28 13:02 | 40.11885 | 32.99080 | 3114 ft | 10 kts | 37° |
| 2026-04-28 13:02 | 40.11942 | 32.99135 | 3114 ft | 11 kts | 36° |
| 2026-04-28 13:03 | 40.12004 | 32.99194 | 3115 ft | 12 kts | 36° |
| 2026-04-28 13:03 | 40.12070 | 32.99257 | 3116 ft | 12 kts | 36° |
| 2026-04-28 13:03 | 40.12142 | 32.99326 | 3117 ft | 14 kts | 36° |
| 2026-04-28 13:03 | 40.12225 | 32.99404 | 3118 ft | 15 kts | 36° |
| 2026-04-28 13:04 | 40.12312 | 32.99488 | 3119 ft | 16 kts | 36° |
| 2026-04-28 13:04 | 40.12405 | 32.99577 | 3120 ft | 17 kts | 36° |
| 2026-04-28 13:04 | 40.12503 | 32.99671 | 3122 ft | 19 kts | 36° |
| 2026-04-28 13:04 | 40.12617 | 32.99778 | 3123 ft | 21 kts | 36° |
| 2026-04-28 13:05 | 40.12740 | 32.99897 | 3123 ft | 25 kts | 37° |
| 2026-04-28 13:05 | 40.12885 | 33.00035 | 3121 ft | 26 kts | 36° |
| 2026-04-28 13:05 | 40.13035 | 33.00178 | 3126 ft | 26 kts | 36° |
| 2026-04-28 13:05 | 40.13184 | 33.00320 | 3125 ft | 27 kts | 38° |
| 2026-04-28 13:06 | 40.13325 | 33.00456 | 3127 ft | 24 kts | 36° |
| 2026-04-28 13:06 | 40.13467 | 33.00590 | 3131 ft | 25 kts | 36° |
| 2026-04-28 13:06 | 40.13612 | 33.00729 | 3132 ft | 26 kts | 36° |
| 2026-04-28 13:06 | 40.13760 | 33.00871 | 3134 ft | 27 kts | 37° |
| 2026-04-28 13:07 | 40.13910 | 33.01015 | 3135 ft | 26 kts | 36° |
| 2026-04-28 13:07 | 40.14051 | 33.01065 | 3136 ft | 21 kts | 334° |
| 2026-04-28 13:07 | 40.14110 | 33.00945 | 3136 ft | 13 kts | 286° |
| 2026-04-28 13:07 | 40.14160 | 33.00846 | 3136 ft | 12 kts | 307° |
| 2026-04-28 13:08 | 40.14180 | 33.00811 | 3136 ft | 0 kts | 307° |
| 2026-04-28 13:09 | 40.14181 | 33.00809 | 3136 ft | 1 kts | 307° |
| 2026-04-28 13:09 | 40.14182 | 33.00808 | 3136 ft | 0 kts | 307° |
| 2026-04-28 13:10 | 40.14188 | 33.00797 | 3136 ft | 5 kts | 307° |
| 2026-04-28 13:10 | 40.14218 | 33.00732 | 3136 ft | 11 kts | 285° |
| 2026-04-28 13:10 | 40.14180 | 33.00660 | 3136 ft | 0 kts | 216° |
| 2026-04-28 13:11 | 40.14179 | 33.00659 | 3136 ft | 0 kts | 216° |
| 2026-04-28 13:12 | 40.14029 | 33.00514 | 3135 ft | 71 kts | 216° |
| 2026-04-28 13:12 | 40.13404 | 32.99919 | 3127 ft | 147 kts | 216° |
| 2026-04-28 13:12 | 40.12442 | 32.98997 | 3385 ft | 187 kts | 221° |
| 2026-04-28 13:12 | 40.11334 | 32.97853 | 3909 ft | 216 kts | 218° |
| 2026-04-28 13:13 | 40.10089 | 32.96651 | 4513 ft | 227 kts | 217° |
| 2026-04-28 13:13 | 40.08776 | 32.95434 | 5045 ft | 237 kts | 216° |
| 2026-04-28 13:13 | 40.07417 | 32.94183 | 5572 ft | 240 kts | 217° |
| 2026-04-28 13:13 | 40.06047 | 32.92917 | 6103 ft | 242 kts | 217° |
| 2026-04-28 13:14 | 40.04668 | 32.91634 | 6633 ft | 244 kts | 217° |
| 2026-04-28 13:14 | 40.03286 | 32.90341 | 7140 ft | 244 kts | 218° |
| 2026-04-28 13:14 | 40.01811 | 32.89237 | 7658 ft | 249 kts | 200° |
| 2026-04-28 13:14 | 40.00078 | 32.89033 | 8179 ft | 256 kts | 172° |
| 2026-04-28 13:15 | 39.98432 | 32.89950 | 8717 ft | 262 kts | 143° |
| 2026-04-28 13:15 | 39.97306 | 32.91834 | 9256 ft | 269 kts | 113° |
| 2026-04-28 13:15 | 39.96769 | 32.94213 | 9823 ft | 281 kts | 105° |
| 2026-04-28 13:15 | 39.96271 | 32.96740 | 10323 ft | 295 kts | 105° |
| 2026-04-28 13:16 | 39.95762 | 32.99358 | 10860 ft | 301 kts | 105° |
| 2026-04-28 13:16 | 39.95242 | 33.02021 | 11371 ft | 305 kts | 105° |
| 2026-04-28 13:16 | 39.94712 | 33.04724 | 12107 ft | 309 kts | 105° |
| 2026-04-28 13:16 | 39.94177 | 33.07447 | 12922 ft | 312 kts | 105° |
| 2026-04-28 13:17 | 39.93631 | 33.10199 | 13688 ft | 316 kts | 105° |
| 2026-04-28 13:17 | 39.93071 | 33.12991 | 14391 ft | 320 kts | 105° |
| 2026-04-28 13:17 | 39.92499 | 33.15822 | 15083 ft | 324 kts | 105° |
| 2026-04-28 13:17 | 39.91927 | 33.18634 | 15743 ft | 328 kts | 105° |
| 2026-04-28 13:18 | 39.91327 | 33.21598 | 15940 ft | 349 kts | 105° |
| 2026-04-28 13:18 | 39.90692 | 33.24746 | 16071 ft | 369 kts | 105° |
| 2026-04-28 13:18 | 39.90022 | 33.28060 | 16292 ft | 385 kts | 105° |
| 2026-04-28 13:18 | 39.89334 | 33.31470 | 16791 ft | 391 kts | 105° |
| 2026-04-28 13:19 | 39.88640 | 33.34916 | 17368 ft | 396 kts | 105° |
| 2026-04-28 13:19 | 39.87939 | 33.38395 | 17965 ft | 400 kts | 105° |
| 2026-04-28 13:19 | 39.87226 | 33.41926 | 18532 ft | 404 kts | 105° |
| 2026-04-28 13:19 | 39.86503 | 33.45485 | 19084 ft | 407 kts | 105° |
| 2026-04-28 13:20 | 39.85775 | 33.49058 | 19633 ft | 410 kts | 105° |
| 2026-04-28 13:20 | 39.85040 | 33.52662 | 20199 ft | 413 kts | 106° |
| 2026-04-28 13:20 | 39.84298 | 33.56288 | 20747 ft | 416 kts | 106° |
| 2026-04-28 13:20 | 39.83548 | 33.59941 | 21269 ft | 419 kts | 106° |
| 2026-04-28 13:21 | 39.82792 | 33.63621 | 21783 ft | 422 kts | 106° |
| 2026-04-28 13:21 | 39.82029 | 33.67329 | 22259 ft | 425 kts | 106° |
| 2026-04-28 13:21 | 39.81261 | 33.71057 | 22757 ft | 428 kts | 106° |
| 2026-04-28 13:21 | 39.80488 | 33.74809 | 23253 ft | 431 kts | 106° |
| 2026-04-28 13:22 | 39.79718 | 33.78543 | 23696 ft | 435 kts | 106° |
| 2026-04-28 13:22 | 39.78928 | 33.82352 | 24089 ft | 438 kts | 107° |
| 2026-04-28 13:22 | 39.78134 | 33.86182 | 24490 ft | 440 kts | 106° |
| 2026-04-28 13:22 | 39.77246 | 33.90009 | 24885 ft | 442 kts | 111° |
| 2026-04-28 13:23 | 39.76182 | 33.93771 | 25248 ft | 445 kts | 111° |
| 2026-04-28 13:23 | 39.75111 | 33.97558 | 25620 ft | 447 kts | 111° |
| 2026-04-28 13:23 | 39.74034 | 34.01361 | 26006 ft | 450 kts | 111° |
| 2026-04-28 13:23 | 39.72949 | 34.05187 | 26377 ft | 453 kts | 111° |
| 2026-04-28 13:24 | 39.71857 | 34.09024 | 26766 ft | 455 kts | 111° |
| 2026-04-28 13:24 | 39.70757 | 34.12895 | 27160 ft | 458 kts | 111° |
| 2026-04-28 13:24 | 39.69653 | 34.16779 | 27535 ft | 460 kts | 111° |
| 2026-04-28 13:24 | 39.68539 | 34.20694 | 27912 ft | 463 kts | 111° |
| 2026-04-28 13:25 | 39.67414 | 34.24632 | 28280 ft | 466 kts | 111° |
| 2026-04-28 13:25 | 39.66283 | 34.28583 | 28640 ft | 469 kts | 111° |
| 2026-04-28 13:25 | 39.65142 | 34.32562 | 28994 ft | 471 kts | 111° |
| 2026-04-28 13:25 | 39.63994 | 34.36559 | 29363 ft | 474 kts | 111° |
| 2026-04-28 13:26 | 39.62839 | 34.40578 | 29741 ft | 476 kts | 111° |
| 2026-04-28 13:26 | 39.61683 | 34.44593 | 30229 ft | 475 kts | 111° |
| 2026-04-28 13:26 | 39.60527 | 34.48607 | 30678 ft | 474 kts | 112° |
| 2026-04-28 13:26 | 39.59374 | 34.52615 | 31113 ft | 474 kts | 111° |
| 2026-04-28 13:27 | 39.58221 | 34.56620 | 31526 ft | 474 kts | 112° |
| 2026-04-28 13:27 | 39.57068 | 34.60612 | 31974 ft | 473 kts | 112° |
| 2026-04-28 13:27 | 39.55912 | 34.64596 | 32446 ft | 472 kts | 112° |
| 2026-04-28 13:27 | 39.54754 | 34.68577 | 32895 ft | 471 kts | 112° |
| 2026-04-28 13:28 | 39.53598 | 34.72543 | 33352 ft | 471 kts | 112° |
| 2026-04-28 13:28 | 39.52438 | 34.76516 | 33806 ft | 470 kts | 112° |
| 2026-04-28 13:28 | 39.51280 | 34.80477 | 34210 ft | 470 kts | 112° |
| 2026-04-28 13:28 | 39.50122 | 34.84437 | 34591 ft | 470 kts | 112° |
| 2026-04-28 13:29 | 39.48981 | 34.88340 | 34935 ft | 470 kts | 113° |
| 2026-04-28 13:29 | 39.47821 | 34.92302 | 35292 ft | 470 kts | 113° |
| 2026-04-28 13:29 | 39.46664 | 34.96256 | 35636 ft | 470 kts | 113° |
| 2026-04-28 13:29 | 39.45490 | 35.00264 | 35973 ft | 470 kts | 113° |
| 2026-04-28 13:30 | 39.44341 | 35.04172 | 36303 ft | 471 kts | 113° |
| 2026-04-28 13:30 | 39.43157 | 35.08180 | 36623 ft | 471 kts | 113° |
| 2026-04-28 13:30 | 39.42001 | 35.12082 | 36923 ft | 471 kts | 113° |
| 2026-04-28 13:31 | 39.38483 | 35.24001 | 37016 ft | 474 kts | 113° |
| 2026-04-28 13:31 | 39.36192 | 35.31984 | 37013 ft | 474 kts | 112° |
| 2026-04-28 13:32 | 39.33897 | 35.39967 | 36996 ft | 474 kts | 113° |
| 2026-04-28 13:32 | 39.31581 | 35.47912 | 37010 ft | 473 kts | 113° |
| 2026-04-28 13:33 | 39.29250 | 35.55851 | 37013 ft | 473 kts | 113° |
| 2026-04-28 13:33 | 39.26923 | 35.63797 | 37013 ft | 473 kts | 113° |
| 2026-04-28 13:34 | 39.24593 | 35.71737 | 37012 ft | 473 kts | 113° |
| 2026-04-28 13:34 | 39.22253 | 35.79675 | 37013 ft | 473 kts | 113° |
| 2026-04-28 13:35 | 39.19908 | 35.87597 | 37012 ft | 473 kts | 113° |
| 2026-04-28 13:35 | 39.17558 | 35.95513 | 37005 ft | 473 kts | 113° |
| 2026-04-28 13:36 | 39.15363 | 36.03503 | 37017 ft | 475 kts | 105° |
| 2026-04-28 13:36 | 39.14236 | 36.11897 | 37012 ft | 476 kts | 101° |
| 2026-04-28 13:37 | 39.13185 | 36.20322 | 37014 ft | 476 kts | 101° |
| 2026-04-28 13:37 | 39.12114 | 36.28733 | 37014 ft | 476 kts | 101° |
| 2026-04-28 13:38 | 39.11031 | 36.37148 | 37015 ft | 476 kts | 101° |
| 2026-04-28 13:38 | 39.10130 | 36.44138 | 37014 ft | 476 kts | 101° |
| 2026-04-28 13:39 | 39.09039 | 36.52544 | 37015 ft | 476 kts | 101° |
| 2026-04-28 13:39 | 39.07942 | 36.60956 | 37015 ft | 476 kts | 101° |
| 2026-04-28 13:40 | 39.06844 | 36.69366 | 37024 ft | 476 kts | 101° |
| 2026-04-28 13:40 | 39.05735 | 36.77772 | 37025 ft | 476 kts | 101° |
| 2026-04-28 13:41 | 39.04619 | 36.86163 | 37024 ft | 476 kts | 102° |
| 2026-04-28 13:41 | 39.03512 | 36.94486 | 37019 ft | 475 kts | 102° |
| 2026-04-28 13:42 | 39.02389 | 37.02862 | 37020 ft | 475 kts | 102° |
| 2026-04-28 13:42 | 39.01258 | 37.11219 | 37013 ft | 474 kts | 102° |
| 2026-04-28 13:43 | 39.00126 | 37.19571 | 37009 ft | 474 kts | 102° |
| 2026-04-28 13:43 | 38.98992 | 37.27932 | 37001 ft | 474 kts | 102° |
| 2026-04-28 13:44 | 38.97856 | 37.36276 | 36996 ft | 474 kts | 102° |
| 2026-04-28 13:44 | 38.96703 | 37.44646 | 36997 ft | 474 kts | 102° |
| 2026-04-28 13:45 | 38.95542 | 37.52983 | 36978 ft | 474 kts | 102° |
| 2026-04-28 13:45 | 38.94378 | 37.61316 | 36975 ft | 474 kts | 102° |
| 2026-04-28 13:46 | 38.93211 | 37.69648 | 36982 ft | 474 kts | 102° |
| 2026-04-28 13:46 | 38.92038 | 37.77974 | 36977 ft | 474 kts | 102° |
| 2026-04-28 13:47 | 38.90864 | 37.86252 | 36965 ft | 474 kts | 102° |
| 2026-04-28 13:47 | 38.89683 | 37.94570 | 36968 ft | 474 kts | 102° |
| 2026-04-28 13:48 | 38.88493 | 38.02898 | 36964 ft | 474 kts | 102° |
| 2026-04-28 13:48 | 38.87290 | 38.11226 | 36964 ft | 474 kts | 103° |
| 2026-04-28 13:49 | 38.86078 | 38.19565 | 36958 ft | 475 kts | 103° |
| 2026-04-28 13:49 | 38.84871 | 38.27888 | 36961 ft | 475 kts | 103° |
| 2026-04-28 13:50 | 38.83659 | 38.36223 | 36956 ft | 475 kts | 103° |
| 2026-04-28 13:50 | 38.82435 | 38.44559 | 36971 ft | 475 kts | 103° |
| 2026-04-28 13:51 | 38.81204 | 38.52884 | 36965 ft | 475 kts | 103° |
| 2026-04-28 13:51 | 38.79971 | 38.61204 | 36958 ft | 475 kts | 103° |
| 2026-04-28 13:52 | 38.78731 | 38.69522 | 36967 ft | 475 kts | 103° |
| 2026-04-28 13:52 | 38.77489 | 38.77828 | 36962 ft | 475 kts | 103° |
| 2026-04-28 13:53 | 38.76232 | 38.86129 | 36954 ft | 474 kts | 103° |
| 2026-04-28 13:53 | 38.74984 | 38.94375 | 36961 ft | 475 kts | 103° |
| 2026-04-28 13:54 | 38.73753 | 39.02684 | 36963 ft | 475 kts | 103° |
| 2026-04-28 13:54 | 38.72530 | 39.11002 | 36951 ft | 475 kts | 103° |
| 2026-04-28 13:55 | 38.71299 | 39.19302 | 36958 ft | 474 kts | 103° |
| 2026-04-28 13:55 | 38.69408 | 39.27334 | 36959 ft | 470 kts | 113° |
| 2026-04-28 13:56 | 38.67114 | 39.35173 | 36930 ft | 470 kts | 113° |
| 2026-04-28 13:56 | 38.64826 | 39.43004 | 36957 ft | 470 kts | 113° |
| 2026-04-28 13:57 | 38.62531 | 39.50832 | 36956 ft | 470 kts | 113° |
| 2026-04-28 13:57 | 38.60257 | 39.58676 | 36954 ft | 471 kts | 113° |
| 2026-04-28 13:58 | 38.58004 | 39.66528 | 36942 ft | 470 kts | 113° |
| 2026-04-28 13:58 | 38.55754 | 39.74370 | 36941 ft | 470 kts | 113° |
| 2026-04-28 13:59 | 38.53489 | 39.82213 | 36942 ft | 470 kts | 113° |
| 2026-04-28 13:59 | 38.51206 | 39.90035 | 36934 ft | 470 kts | 113° |
| 2026-04-28 14:00 | 38.48920 | 39.97842 | 36925 ft | 470 kts | 113° |
| 2026-04-28 14:00 | 38.46641 | 40.05612 | 36933 ft | 470 kts | 113° |
| 2026-04-28 14:01 | 38.44345 | 40.13426 | 36939 ft | 470 kts | 113° |
| 2026-04-28 14:01 | 38.42055 | 40.21229 | 36924 ft | 470 kts | 113° |
| 2026-04-28 14:02 | 38.39762 | 40.29045 | 36936 ft | 470 kts | 113° |
| 2026-04-28 14:02 | 38.37459 | 40.36833 | 36933 ft | 472 kts | 114° |
| 2026-04-28 14:03 | 38.35089 | 40.44767 | 36930 ft | 482 kts | 114° |
| 2026-04-28 14:03 | 38.32708 | 40.52756 | 36925 ft | 483 kts | 114° |
| 2026-04-28 14:04 | 38.30323 | 40.60764 | 36922 ft | 483 kts | 114° |
| 2026-04-28 14:04 | 38.27930 | 40.68768 | 36923 ft | 483 kts | 114° |
| 2026-04-28 14:05 | 38.25531 | 40.76742 | 36910 ft | 483 kts | 114° |
| 2026-04-28 14:05 | 38.23151 | 40.84600 | 36451 ft | 474 kts | 114° |
| 2026-04-28 14:06 | 38.21955 | 40.88481 | 36020 ft | 469 kts | 114° |
| 2026-04-28 14:06 | 38.20762 | 40.92316 | 35602 ft | 466 kts | 115° |
| 2026-04-28 14:06 | 38.19567 | 40.96137 | 35188 ft | 463 kts | 115° |
| 2026-04-28 14:06 | 38.18379 | 40.99936 | 34769 ft | 462 kts | 115° |
| 2026-04-28 14:07 | 38.17196 | 41.03721 | 34368 ft | 461 kts | 114° |
| 2026-04-28 14:07 | 38.16012 | 41.07504 | 33965 ft | 459 kts | 114° |
| 2026-04-28 14:07 | 38.14832 | 41.11264 | 33519 ft | 459 kts | 114° |
| 2026-04-28 14:07 | 38.13654 | 41.15031 | 33071 ft | 459 kts | 114° |
| 2026-04-28 14:08 | 38.12492 | 41.18812 | 32614 ft | 460 kts | 114° |
| 2026-04-28 14:08 | 38.11340 | 41.22602 | 32166 ft | 460 kts | 113° |
| 2026-04-28 14:08 | 38.10192 | 41.26396 | 31728 ft | 460 kts | 113° |
| 2026-04-28 14:08 | 38.09044 | 41.30177 | 31299 ft | 460 kts | 113° |
| 2026-04-28 14:09 | 38.07884 | 41.33981 | 30874 ft | 460 kts | 114° |
| 2026-04-28 14:09 | 38.06720 | 41.37774 | 30457 ft | 461 kts | 114° |
| 2026-04-28 14:09 | 38.05563 | 41.41509 | 30052 ft | 461 kts | 114° |
| 2026-04-28 14:09 | 38.04384 | 41.45301 | 29582 ft | 462 kts | 114° |
| 2026-04-28 14:10 | 38.03206 | 41.49088 | 29104 ft | 463 kts | 113° |
| 2026-04-28 14:10 | 38.02027 | 41.52884 | 28643 ft | 462 kts | 113° |
| 2026-04-28 14:10 | 38.00853 | 41.56672 | 28178 ft | 460 kts | 113° |
| 2026-04-28 14:10 | 37.99689 | 41.60438 | 27728 ft | 457 kts | 113° |
| 2026-04-28 14:11 | 37.98537 | 41.64172 | 27290 ft | 454 kts | 112° |
| 2026-04-28 14:11 | 37.97387 | 41.67894 | 26855 ft | 451 kts | 112° |
| 2026-04-28 14:11 | 37.96247 | 41.71581 | 26426 ft | 449 kts | 112° |
| 2026-04-28 14:11 | 37.95111 | 41.75246 | 26003 ft | 445 kts | 113° |
| 2026-04-28 14:12 | 37.93982 | 41.78880 | 25586 ft | 441 kts | 113° |
| 2026-04-28 14:12 | 37.92618 | 41.82340 | 25172 ft | 436 kts | 124° |
| 2026-04-28 14:12 | 37.90758 | 41.85331 | 24937 ft | 431 kts | 136° |
| 2026-04-28 14:12 | 37.88485 | 41.87779 | 24950 ft | 429 kts | 147° |
| 2026-04-28 14:13 | 37.85889 | 41.89640 | 24919 ft | 428 kts | 157° |
| 2026-04-28 14:13 | 37.83089 | 41.90854 | 24536 ft | 425 kts | 166° |
| 2026-04-28 14:13 | 37.80239 | 41.91798 | 24145 ft | 423 kts | 166° |
| 2026-04-28 14:13 | 37.77397 | 41.92728 | 23754 ft | 421 kts | 166° |
| 2026-04-28 14:14 | 37.74557 | 41.93652 | 23330 ft | 421 kts | 166° |
| 2026-04-28 14:14 | 37.71723 | 41.94575 | 22866 ft | 420 kts | 166° |
| 2026-04-28 14:14 | 37.68910 | 41.95495 | 22414 ft | 417 kts | 166° |
| 2026-04-28 14:14 | 37.66101 | 41.96418 | 21962 ft | 415 kts | 166° |
| 2026-04-28 14:15 | 37.63328 | 41.97333 | 21525 ft | 409 kts | 166° |
| 2026-04-28 14:15 | 37.60626 | 41.98227 | 21095 ft | 405 kts | 166° |
| 2026-04-28 14:15 | 37.57911 | 41.99127 | 20671 ft | 403 kts | 166° |
| 2026-04-28 14:15 | 37.55204 | 42.00024 | 20252 ft | 401 kts | 166° |
| 2026-04-28 14:16 | 37.52506 | 42.00919 | 19840 ft | 400 kts | 166° |
| 2026-04-28 14:16 | 37.49819 | 42.01805 | 19432 ft | 399 kts | 166° |
| 2026-04-28 14:16 | 37.47132 | 42.02689 | 19028 ft | 397 kts | 166° |
| 2026-04-28 14:16 | 37.44466 | 42.03561 | 18632 ft | 396 kts | 166° |
| 2026-04-28 14:17 | 37.41806 | 42.04426 | 18233 ft | 394 kts | 167° |
| 2026-04-28 14:17 | 37.39156 | 42.05282 | 17779 ft | 392 kts | 166° |
| 2026-04-28 14:17 | 37.36630 | 42.06513 | 17327 ft | 390 kts | 150° |
| 2026-04-28 14:17 | 37.34568 | 42.08701 | 16886 ft | 390 kts | 130° |
| 2026-04-28 14:18 | 37.33147 | 42.11591 | 16447 ft | 390 kts | 118° |
| 2026-04-28 14:18 | 37.31952 | 42.14642 | 16020 ft | 387 kts | 117° |
| 2026-04-28 14:18 | 37.30765 | 42.17664 | 15594 ft | 384 kts | 117° |
| 2026-04-28 14:18 | 37.29731 | 42.20744 | 15120 ft | 382 kts | 105° |
| 2026-04-28 14:19 | 37.29502 | 42.24019 | 14696 ft | 372 kts | 84° |
| 2026-04-28 14:19 | 37.30172 | 42.27052 | 14296 ft | 356 kts | 63° |
| 2026-04-28 14:19 | 37.31637 | 42.29494 | 13906 ft | 349 kts | 41° |
| 2026-04-28 14:19 | 37.33686 | 42.31049 | 13479 ft | 340 kts | 18° |
| 2026-04-28 14:20 | 37.35978 | 42.31445 | 13311 ft | 333 kts | 354° |
| 2026-04-28 14:20 | 37.38185 | 42.30668 | 13343 ft | 331 kts | 331° |
| 2026-04-28 14:20 | 37.39962 | 42.28897 | 13270 ft | 322 kts | 308° |
| 2026-04-28 14:20 | 37.41150 | 42.26582 | 13033 ft | 312 kts | 298° |
| 2026-04-28 14:21 | 37.42173 | 42.24195 | 12805 ft | 307 kts | 294° |
| 2026-04-28 14:21 | 37.42732 | 42.21656 | 12631 ft | 301 kts | 273° |
| 2026-04-28 14:21 | 37.42541 | 42.19057 | 12518 ft | 299 kts | 251° |
| 2026-04-28 14:21 | 37.41670 | 42.16745 | 12462 ft | 297 kts | 238° |
| 2026-04-28 14:22 | 37.40597 | 42.14525 | 12350 ft | 297 kts | 237° |
| 2026-04-28 14:22 | 37.39523 | 42.12318 | 12254 ft | 295 kts | 237° |
| 2026-04-28 14:22 | 37.38457 | 42.10103 | 12132 ft | 296 kts | 241° |
| 2026-04-28 14:22 | 37.37872 | 42.07638 | 11983 ft | 296 kts | 266° |
| 2026-04-28 14:23 | 37.38193 | 42.05129 | 11829 ft | 290 kts | 292° |
| 2026-04-28 14:23 | 37.39230 | 42.02962 | 11674 ft | 290 kts | 304° |
| 2026-04-28 14:23 | 37.40426 | 42.00915 | 11534 ft | 290 kts | 306° |
| 2026-04-28 14:23 | 37.41644 | 41.98875 | 11382 ft | 290 kts | 306° |
| 2026-04-28 14:24 | 37.42858 | 41.96852 | 11220 ft | 290 kts | 306° |
| 2026-04-28 14:24 | 37.43663 | 41.95512 | 11056 ft | 289 kts | 306° |
| 2026-04-28 14:24 | 37.45290 | 41.92839 | 10648 ft | 291 kts | 306° |
| 2026-04-28 14:24 | 37.46536 | 41.90822 | 10267 ft | 293 kts | 306° |
| 2026-04-28 14:25 | 37.47792 | 41.88786 | 9889 ft | 295 kts | 306° |
| 2026-04-28 14:25 | 37.48638 | 41.87396 | 9607 ft | 295 kts | 306° |
| 2026-04-28 14:25 | 37.49851 | 41.85412 | 9328 ft | 283 kts | 306° |
| 2026-04-28 14:25 | 37.51020 | 41.83485 | 9061 ft | 270 kts | 306° |
| 2026-04-28 14:26 | 37.52016 | 41.81553 | 8801 ft | 258 kts | 287° |
| 2026-04-28 14:26 | 37.52100 | 41.79373 | 8480 ft | 250 kts | 250° |
| 2026-04-28 14:26 | 37.51162 | 41.77613 | 7973 ft | 242 kts | 212° |
| 2026-04-28 14:26 | 37.49636 | 41.76844 | 7469 ft | 236 kts | 184° |
| 2026-04-28 14:27 | 37.48045 | 41.77157 | 6995 ft | 233 kts | 154° |
| 2026-04-28 14:27 | 37.46857 | 41.78509 | 6523 ft | 236 kts | 122° |
| 2026-04-28 14:27 | 37.46111 | 41.80369 | 6153 ft | 239 kts | 116° |
| 2026-04-28 14:27 | 37.45430 | 41.82241 | 5831 ft | 229 kts | 116° |
| 2026-04-28 14:28 | 37.44771 | 41.84000 | 5537 ft | 217 kts | 116° |
| 2026-04-28 14:28 | 37.44136 | 41.85676 | 5266 ft | 207 kts | 117° |
| 2026-04-28 14:28 | 37.43529 | 41.87276 | 4994 ft | 198 kts | 118° |
| 2026-04-28 14:28 | 37.42939 | 41.88830 | 4751 ft | 195 kts | 117° |
| 2026-04-28 14:29 | 37.42373 | 41.90321 | 4516 ft | 183 kts | 117° |
| 2026-04-28 14:29 | 37.41851 | 41.91697 | 4274 ft | 166 kts | 118° |
| 2026-04-28 14:29 | 37.41369 | 41.92962 | 4047 ft | 156 kts | 116° |
| 2026-04-28 14:29 | 37.40918 | 41.94148 | 3869 ft | 149 kts | 117° |
| 2026-04-28 14:30 | 37.40470 | 41.95324 | 3668 ft | 151 kts | 117° |
| 2026-04-28 14:30 | 37.40006 | 41.96542 | 3468 ft | 154 kts | 116° |
| 2026-04-28 14:30 | 37.39544 | 41.97755 | 3264 ft | 154 kts | 117° |
| 2026-04-28 14:30 | 37.39091 | 41.98946 | 3048 ft | 145 kts | 118° |
| 2026-04-28 14:31 | 37.38665 | 42.00067 | 2860 ft | 139 kts | 119° |
| 2026-04-28 14:31 | 37.38252 | 42.01150 | 2661 ft | 135 kts | 119° |
| 2026-04-28 14:31 | 37.37850 | 42.02203 | 2479 ft | 132 kts | 117° |
| 2026-04-28 14:31 | 37.37452 | 42.03245 | 2307 ft | 133 kts | 118° |
| 2026-04-28 14:32 | 37.37053 | 42.04292 | 2114 ft | 132 kts | 115° |
| 2026-04-28 14:32 | 37.36688 | 42.05255 | 2073 ft | 105 kts | 116° |
| 2026-04-28 14:32 | 37.36447 | 42.05886 | 2074 ft | 55 kts | 115° |
| 2026-04-28 14:32 | 37.36339 | 42.06170 | 2073 ft | 26 kts | 116° |
| 2026-04-28 14:33 | 37.36264 | 42.06317 | 2073 ft | 15 kts | 116° |
| 2026-04-28 14:33 | 37.36283 | 42.06346 | 2074 ft | 7 kts | 320° |
| 2026-04-28 14:33 | 37.36311 | 42.06242 | 2073 ft | 15 kts | 296° |
| 2026-04-28 14:33 | 37.36357 | 42.06121 | 2078 ft | 16 kts | 296° |
| 2026-04-28 14:34 | 37.36317 | 42.05960 | 2077 ft | 13 kts | 204° |
| 2026-04-28 14:34 | 37.36229 | 42.05909 | 2075 ft | 15 kts | 205° |
| 2026-04-28 14:34 | 37.36186 | 42.05839 | 2072 ft | 7 kts | 269° |
| 2026-04-28 14:35 | 37.36155 | 42.05798 | 2069 ft | 5 kts | 244° |
| 2026-04-28 14:35 | 37.36142 | 42.05763 | 2067 ft | 0 kts | 245° |
| 2026-04-28 14:36 | 37.36149 | 42.05782 | 2068 ft | 0 kts | 245° |